createdAt,value
2023-04-19T00:00:11.674Z,97537.72
2023-04-19T00:03:14.640Z,97546.69
2023-04-19T00:06:17.447Z,97542.38
2023-04-19T00:09:19.025Z,97541.19
2023-04-19T00:12:20.580Z,97541.34
2023-04-19T00:15:22.125Z,97544.97
2023-04-19T00:18:23.642Z,97540.03
2023-04-19T00:21:25.112Z,97542.69
2023-04-19T00:24:26.597Z,97537.41
2023-04-19T00:27:28.123Z,97533.09
2023-04-19T00:30:29.649Z,97536.22
2023-04-19T00:33:33.091Z,97525.44
2023-04-19T00:36:34.700Z,97531.38
2023-04-19T00:39:36.213Z,97529.06
2023-04-19T00:42:39.863Z,97531.72
2023-04-19T00:45:41.509Z,97535.16
2023-04-19T00:48:43.117Z,97535.00
2023-04-19T00:51:48.017Z,97536.59
2023-04-19T00:54:49.822Z,97530.41
2023-04-19T00:57:52.253Z,97524.31
2023-04-19T01:00:53.930Z,97520.00
2023-04-19T01:03:55.738Z,97520.78
2023-04-19T01:06:57.410Z,97510.63
2023-04-19T01:09:58.962Z,97521.13
2023-04-19T01:13:00.494Z,97514.56
2023-04-19T01:16:02.061Z,97515.31
2023-04-19T01:19:03.782Z,97512.41
2023-04-19T01:22:06.506Z,97516.28
2023-04-19T01:25:08.768Z,97509.06
2023-04-19T01:28:10.404Z,97508.53
2023-04-19T01:31:11.971Z,97506.53
2023-04-19T01:34:14.023Z,97511.47
2023-04-19T01:37:15.761Z,97498.72
2023-04-19T01:40:17.638Z,97497.56
2023-04-19T01:43:19.167Z,97501.38
2023-04-19T01:46:21.235Z,97492.91
2023-04-19T01:49:22.931Z,97489.22
2023-04-19T01:52:24.470Z,97480.72
2023-04-19T01:55:26.450Z,97485.94
2023-04-19T01:58:27.970Z,97477.16
2023-04-19T02:01:29.731Z,97471.22
2023-04-19T02:04:34.374Z,97473.47
2023-04-19T02:07:35.977Z,97469.72
2023-04-19T02:10:37.502Z,97483.22
2023-04-19T02:13:38.954Z,97483.22
2023-04-19T02:16:41.942Z,97480.13
2023-04-19T02:19:43.603Z,97474.81
2023-04-19T02:22:45.155Z,97477.06
2023-04-19T02:25:46.731Z,97471.47
2023-04-19T02:28:51.455Z,97472.50
2023-04-19T02:31:52.962Z,97466.63
2023-04-19T02:34:54.555Z,97471.94
2023-04-19T02:37:56.063Z,97472.34
2023-04-19T02:40:57.620Z,97471.88
2023-04-19T02:43:59.088Z,97463.56
2023-04-19T02:47:00.841Z,97465.97
2023-04-19T02:50:02.684Z,97466.84
2023-04-19T02:53:06.966Z,97466.84
2023-04-19T02:56:09.319Z,97467.72
2023-04-19T02:59:10.862Z,97462.03
2023-04-19T03:02:12.502Z,97459.19
2023-04-19T03:05:14.070Z,97464.13
2023-04-19T03:08:15.609Z,97457.81
2023-04-19T03:11:19.507Z,97458.25
2023-04-19T03:14:21.749Z,97448.66
2023-04-19T03:17:23.863Z,97450.69
2023-04-19T03:20:26.801Z,97448.25
2023-04-19T03:23:28.400Z,97455.84
2023-04-19T03:26:32.540Z,97455.09
2023-04-19T03:29:35.632Z,97450.44
2023-04-19T03:32:41.105Z,97443.28
2023-04-19T03:35:44.068Z,97453.09
2023-04-19T03:38:46.541Z,97444.91
2023-04-19T03:41:52.639Z,97436.38
2023-04-19T03:45:20.333Z,97438.44
2023-04-19T03:48:22.801Z,97436.44
2023-04-19T03:51:24.881Z,97435.25
2023-04-19T03:54:26.404Z,97430.53
2023-04-19T03:57:28.355Z,97432.00
2023-04-19T04:00:31.240Z,97433.91
2023-04-19T04:03:35.787Z,97441.88
2023-04-19T04:06:38.964Z,97438.81
2023-04-19T04:09:40.834Z,97446.03
2023-04-19T04:12:42.345Z,97444.66
2023-04-19T04:15:47.384Z,97436.13
2023-04-19T04:18:51.047Z,97442.31
2023-04-19T04:21:52.593Z,97447.84
2023-04-19T04:24:54.912Z,97437.03
2023-04-19T04:28:01.104Z,97441.09
2023-04-19T04:31:02.757Z,97439.69
2023-04-19T04:34:09.178Z,97451.34
2023-04-19T04:37:14.465Z,97448.03
2023-04-19T04:40:16.733Z,97446.91
2023-04-19T04:43:18.252Z,97450.00
2023-04-19T04:46:20.047Z,97453.06
2023-04-19T04:49:21.645Z,97451.69
2023-04-19T04:52:23.328Z,97452.09
2023-04-19T04:55:34.728Z,97455.38
2023-04-19T04:58:37.073Z,97449.03
2023-04-19T05:01:42.000Z,97453.53
2023-04-19T05:04:43.956Z,97453.78
2023-04-19T05:07:45.960Z,97448.91
2023-04-19T05:10:47.758Z,97452.41
2023-04-19T05:13:49.716Z,97453.22
2023-04-19T05:16:51.706Z,97461.25
2023-04-19T05:19:53.796Z,97456.38
2023-04-19T05:22:59.146Z,97457.00
2023-04-19T05:26:00.760Z,97463.97
2023-04-19T05:29:03.823Z,97462.88
2023-04-19T05:32:23.806Z,97460.66
2023-04-19T05:35:30.091Z,97473.25
2023-04-19T05:38:31.808Z,97466.50
2023-04-19T05:41:36.637Z,97471.91
2023-04-19T05:44:38.238Z,97463.91
2023-04-19T05:47:40.720Z,97476.19
2023-04-19T05:51:00.730Z,97469.59
2023-04-19T05:54:28.605Z,97461.72
2023-04-19T05:57:30.542Z,97467.00
2023-04-19T06:00:32.609Z,97468.66
2023-04-19T06:03:42.408Z,97474.72
2023-04-19T06:06:44.371Z,97467.78
2023-04-19T06:09:49.331Z,97469.44
2023-04-19T06:12:51.025Z,97470.25
2023-04-19T06:15:52.862Z,97478.16
2023-04-19T06:18:54.405Z,97471.97
2023-04-19T06:21:56.391Z,97475.94
2023-04-19T06:24:57.865Z,97478.00
2023-04-19T06:27:59.537Z,97480.47
2023-04-19T06:31:02.079Z,97475.13
2023-04-19T06:34:03.706Z,97479.47
2023-04-19T06:37:05.257Z,97474.53
2023-04-19T06:40:08.360Z,97482.75
2023-04-19T06:43:09.881Z,97482.69
2023-04-19T06:46:13.913Z,97482.31
2023-04-19T06:49:15.668Z,97485.22
2023-04-19T06:52:17.253Z,97479.28
2023-04-19T06:55:18.730Z,97482.88
2023-04-19T06:58:20.462Z,97478.50
2023-04-19T07:01:21.951Z,97480.34
2023-04-19T07:04:23.830Z,97485.06
2023-04-19T07:07:25.334Z,97486.47
2023-04-19T07:10:27.065Z,97484.81
2023-04-19T07:13:28.657Z,97482.59
2023-04-19T07:16:30.306Z,97479.72
2023-04-19T07:19:32.117Z,97472.75
2023-04-19T07:22:33.834Z,97479.72
2023-04-19T07:25:35.351Z,97471.94
2023-04-19T07:28:36.977Z,97471.72
2023-04-19T07:31:38.669Z,97476.22
2023-04-19T07:34:41.361Z,97477.06
2023-04-19T07:37:42.922Z,97467.63
2023-04-19T07:40:44.513Z,97473.97
2023-04-19T07:43:46.087Z,97471.06
2023-04-19T07:46:47.674Z,97473.13
2023-04-19T07:49:55.779Z,97476.41
2023-04-19T07:52:57.372Z,97478.78
2023-04-19T07:55:58.908Z,97477.72
2023-04-19T07:59:07.405Z,97471.16
2023-04-19T08:02:10.764Z,97472.78
2023-04-19T08:05:13.629Z,97468.13
2023-04-19T08:08:15.235Z,97463.69
2023-04-19T08:11:16.833Z,97464.28
2023-04-19T08:14:32.341Z,97468.94
2023-04-19T08:17:41.823Z,97461.31
2023-04-19T08:20:46.476Z,97465.56
2023-04-19T08:23:48.659Z,97465.81
2023-04-19T08:26:54.095Z,97469.69
2023-04-19T08:29:56.056Z,97466.06
2023-04-19T08:32:57.718Z,97467.94
2023-04-19T08:35:59.263Z,97470.97
2023-04-19T08:39:05.731Z,97469.50
2023-04-19T08:42:18.119Z,97467.41
2023-04-19T08:45:32.771Z,97455.41
2023-04-19T08:48:36.751Z,97466.19
2023-04-19T08:51:38.627Z,97457.00
2023-04-19T08:54:41.214Z,97465.41
2023-04-19T08:57:42.762Z,97472.78
2023-04-19T09:00:44.492Z,97459.94
2023-04-19T09:04:02.610Z,97458.50
2023-04-19T09:07:23.309Z,97451.13
2023-04-19T09:10:26.228Z,97454.53
2023-04-19T09:13:29.313Z,97445.06
2023-04-19T09:16:30.776Z,97448.66
2023-04-19T09:19:46.854Z,97448.16
2023-04-19T09:23:07.522Z,97453.28
2023-04-19T09:26:22.836Z,97444.50
2023-04-19T09:29:26.884Z,97437.47
2023-04-19T09:32:29.276Z,97432.78
2023-04-19T09:35:45.910Z,97431.22
2023-04-19T09:38:48.913Z,97429.50
2023-04-19T09:41:52.392Z,97427.75
2023-04-19T09:48:04.180Z,97427.44
2023-04-19T09:51:10.572Z,97429.69
2023-04-19T09:54:16.051Z,97422.38
2023-04-19T09:57:17.682Z,97421.28
2023-04-19T10:00:21.608Z,97420.56
2023-04-19T10:03:29.357Z,97412.72
2023-04-19T10:06:46.302Z,97411.97
2023-04-19T10:10:11.766Z,97408.47
2023-04-19T10:13:21.304Z,97406.13
2023-04-19T10:16:24.090Z,97398.03
2023-04-19T10:19:27.379Z,97395.34
2023-04-19T10:22:29.063Z,97399.09
2023-04-19T10:25:30.972Z,97394.63
2023-04-19T10:28:36.053Z,97396.13
2023-04-19T10:31:40.892Z,97394.53
2023-04-19T10:34:42.569Z,97394.03
2023-04-19T10:38:02.732Z,97395.44
2023-04-19T10:41:05.477Z,97392.22
2023-04-19T10:44:11.753Z,97386.28
2023-04-19T10:47:14.633Z,97389.31
2023-04-19T10:50:19.173Z,97383.28
2023-04-19T10:53:50.711Z,97386.03
2023-04-19T10:57:05.224Z,97377.63
2023-04-19T11:00:21.038Z,97371.31
2023-04-19T11:03:44.554Z,97369.94
2023-04-19T11:06:52.701Z,97360.34
2023-04-19T11:09:54.327Z,97363.78
2023-04-19T11:12:56.596Z,97359.06
2023-04-19T11:15:59.393Z,97360.56
2023-04-19T11:19:01.221Z,97353.44
2023-04-19T11:22:02.671Z,97351.88
2023-04-19T11:25:10.563Z,97347.22
2023-04-19T11:28:12.204Z,97351.47
2023-04-19T11:31:13.955Z,97350.78
2023-04-19T11:34:15.863Z,97345.13
2023-04-19T11:37:17.720Z,97346.28
2023-04-19T11:40:21.505Z,97348.50
2023-04-19T11:43:23.010Z,97337.75
2023-04-19T11:46:24.693Z,97343.28
2023-04-19T11:49:31.049Z,97342.78
2023-04-19T11:52:35.646Z,97349.63
2023-04-19T11:55:37.244Z,97334.19
2023-04-19T11:58:48.641Z,97341.47
2023-04-19T12:01:50.266Z,97335.56
2023-04-19T12:04:52.031Z,97329.19
2023-04-19T12:08:04.059Z,97333.72
2023-04-19T12:11:06.643Z,97334.94
2023-04-19T12:14:13.481Z,97328.03
2023-04-19T12:17:15.855Z,97319.78
2023-04-19T12:20:29.508Z,97312.88
2023-04-19T12:23:31.161Z,97312.34
2023-04-19T12:26:32.718Z,97313.50
2023-04-19T12:29:34.717Z,97314.28
2023-04-19T12:32:36.257Z,97306.84
2023-04-19T12:35:38.622Z,97310.03
2023-04-19T12:38:40.563Z,97307.66
2023-04-19T12:41:42.236Z,97308.72
2023-04-19T12:44:43.753Z,97304.19
2023-04-19T12:47:47.386Z,97298.53
2023-04-19T12:50:48.960Z,97296.19
2023-04-19T12:53:50.917Z,97286.75
2023-04-19T12:56:52.424Z,97288.97
2023-04-19T12:59:53.942Z,97286.34
2023-04-19T13:02:55.793Z,97279.72
2023-04-19T13:05:57.538Z,97280.72
2023-04-19T13:09:01.024Z,97272.31
2023-04-19T13:12:03.978Z,97272.66
2023-04-19T13:15:06.117Z,97262.53
2023-04-19T13:18:07.749Z,97259.44
2023-04-19T13:21:09.311Z,97257.44
2023-04-19T13:24:10.997Z,97254.19
2023-04-19T13:27:12.687Z,97248.00
2023-04-19T13:30:14.750Z,97248.47
2023-04-19T13:33:16.224Z,97240.03
2023-04-19T13:36:18.064Z,97233.66
2023-04-19T13:39:19.541Z,97236.34
2023-04-19T13:42:21.066Z,97233.75
2023-04-19T13:45:22.656Z,97233.41
2023-04-19T13:48:27.076Z,97232.09
2023-04-19T13:51:38.820Z,97219.94
2023-04-19T13:54:48.336Z,97229.72
2023-04-19T13:57:49.967Z,97217.72
2023-04-19T14:00:53.907Z,97218.63
2023-04-19T14:03:55.657Z,97218.44
2023-04-19T14:06:57.424Z,97196.50
2023-04-19T14:09:58.909Z,97208.00
2023-04-19T14:13:00.668Z,97196.16
2023-04-19T14:16:02.199Z,97187.00
2023-04-19T14:19:03.927Z,97189.09
2023-04-19T14:22:06.205Z,97195.25
2023-04-19T14:25:08.118Z,97184.97
2023-04-19T14:28:09.631Z,97192.09
2023-04-19T14:31:11.166Z,97189.06
2023-04-19T14:34:12.678Z,97182.63
2023-04-19T14:37:14.313Z,97178.44
2023-04-19T14:40:17.767Z,97172.16
2023-04-19T14:43:19.339Z,97171.94
2023-04-19T14:46:21.054Z,97170.63
2023-04-19T14:49:22.708Z,97174.66
2023-04-19T14:52:24.619Z,97164.16
2023-04-19T14:55:27.842Z,97158.41
2023-04-19T14:58:29.407Z,97161.25
2023-04-19T15:01:31.064Z,97152.00
2023-04-19T15:04:38.252Z,97149.19
2023-04-19T15:07:41.991Z,97148.03
2023-04-19T15:10:43.504Z,97145.97
2023-04-19T15:13:44.979Z,97152.16
2023-04-19T15:16:46.814Z,97144.31
2023-04-19T15:19:48.342Z,97143.91
2023-04-19T15:22:49.912Z,97142.91
2023-04-19T15:25:52.287Z,97136.59
2023-04-19T15:28:55.894Z,97139.25
2023-04-19T15:31:57.528Z,97132.53
2023-04-19T15:34:59.180Z,97133.09
2023-04-19T15:38:00.794Z,97123.97
2023-04-19T15:41:02.376Z,97131.38
2023-04-19T15:44:03.911Z,97126.22
2023-04-19T15:47:05.748Z,97123.59
2023-04-19T15:50:07.914Z,97124.72
2023-04-19T15:53:09.997Z,97124.28
2023-04-19T15:56:11.666Z,97120.59
2023-04-19T15:59:13.253Z,97120.38
2023-04-19T16:02:15.050Z,97114.00
2023-04-19T16:05:16.694Z,97127.09
2023-04-19T16:08:21.884Z,97123.00
2023-04-19T16:11:23.728Z,97123.31
2023-04-19T16:14:25.301Z,97129.47
2023-04-19T16:17:26.819Z,97126.34
2023-04-19T16:20:28.484Z,97133.78
2023-04-19T16:23:30.305Z,97140.13
2023-04-19T16:26:31.840Z,97142.91
2023-04-19T16:29:33.672Z,97142.00
2023-04-19T16:32:35.161Z,97154.69
2023-04-19T16:35:36.759Z,97140.97
2023-04-19T16:38:38.331Z,97146.06
2023-04-19T16:41:39.926Z,97147.94
2023-04-19T16:44:41.486Z,97137.25
2023-04-19T16:47:45.712Z,97142.88
2023-04-19T16:50:49.323Z,97151.28
2023-04-19T16:53:50.884Z,97138.94
2023-04-19T16:56:52.479Z,97141.03
2023-04-19T16:59:54.029Z,97140.75
2023-04-19T17:02:55.726Z,97136.72
2023-04-19T17:05:58.010Z,97132.00
2023-04-19T17:09:02.004Z,97133.41
2023-04-19T17:12:03.799Z,97137.53
2023-04-19T17:15:05.949Z,97135.06
2023-04-19T17:18:07.629Z,97129.53
2023-04-19T17:21:09.156Z,97127.72
2023-04-19T17:24:10.732Z,97131.41
2023-04-19T17:27:12.183Z,97128.16
2023-04-19T17:30:13.855Z,97129.59
2023-04-19T17:33:15.368Z,97131.69
2023-04-19T17:36:18.546Z,97134.75
2023-04-19T17:39:20.182Z,97129.63
2023-04-19T17:42:21.631Z,97130.47
2023-04-19T17:45:24.996Z,97138.09
2023-04-19T17:48:26.514Z,97134.41
2023-04-19T17:51:28.116Z,97137.66
2023-04-19T17:54:30.275Z,97139.72
2023-04-19T17:57:34.086Z,97137.66
2023-04-19T18:00:35.578Z,97142.63
2023-04-19T18:03:37.959Z,97140.13
2023-04-19T18:06:39.650Z,97143.44
2023-04-19T18:09:41.913Z,97144.69
2023-04-19T18:12:43.465Z,97151.41
2023-04-19T18:15:44.970Z,97151.63
2023-04-19T18:18:46.549Z,97154.47
2023-04-19T18:21:48.072Z,97158.56
2023-04-19T18:24:51.141Z,97159.81
2023-04-19T18:27:52.720Z,97158.16
2023-04-19T18:30:54.368Z,97153.44
2023-04-19T18:33:55.985Z,97162.66
2023-04-19T18:37:01.472Z,97162.63
2023-04-19T18:40:06.857Z,97172.06
2023-04-19T18:43:08.361Z,97179.59
2023-04-19T18:46:10.052Z,97180.19
2023-04-19T18:49:11.748Z,97181.84
2023-04-19T18:52:14.930Z,97183.28
2023-04-19T18:55:16.586Z,97191.25
2023-04-19T18:58:18.620Z,97181.59
2023-04-19T19:01:20.998Z,97197.31
2023-04-19T19:07:36.161Z,97210.47
2023-04-19T19:11:12.660Z,97213.38
2023-04-19T19:13:59.581Z,97205.06
2023-04-19T19:17:04.215Z,97202.34
2023-04-19T19:20:07.239Z,97215.19
2023-04-19T19:23:08.795Z,97208.44
2023-04-19T19:26:13.034Z,97220.66
2023-04-19T19:29:16.548Z,97213.75
2023-04-19T19:32:19.205Z,97218.84
2023-04-19T19:35:20.787Z,97214.97
2023-04-19T19:38:22.293Z,97216.53
2023-04-19T19:41:58.653Z,97218.31
2023-04-19T19:44:45.374Z,97207.25
2023-04-19T19:47:49.543Z,97207.63
2023-04-19T19:53:56.891Z,97201.38
2023-04-19T20:00:22.877Z,97194.28
2023-04-19T20:03:36.219Z,97192.88
2023-04-19T20:07:24.859Z,97191.69
2023-04-19T20:10:00.819Z,97189.34
2023-04-19T20:13:02.449Z,97187.34
2023-04-19T20:16:04.082Z,97177.22
2023-04-19T20:19:09.978Z,97187.75
2023-04-19T20:22:11.607Z,97188.28
2023-04-19T20:25:13.490Z,97173.75
2023-04-19T20:28:15.310Z,97173.88
2023-04-19T20:31:16.795Z,97173.13
2023-04-19T20:34:18.365Z,97176.53
2023-04-19T20:37:23.371Z,97173.03
2023-04-19T20:40:24.940Z,97157.88
2023-04-19T20:43:26.368Z,97153.63
2023-04-19T20:46:28.197Z,97161.56
2023-04-19T20:49:29.693Z,97160.50
2023-04-19T20:52:31.218Z,97150.50
2023-04-19T20:55:32.791Z,97155.47
2023-04-19T20:58:34.580Z,97154.13
2023-04-19T21:01:36.570Z,97149.09
2023-04-19T21:04:38.266Z,97149.72
2023-04-19T21:07:39.799Z,97154.78
2023-04-19T21:10:41.406Z,97150.63
2023-04-19T21:13:42.976Z,97146.78
2023-04-19T21:16:44.435Z,97142.72
2023-04-19T21:19:46.043Z,97136.94
2023-04-19T21:22:47.500Z,97132.81
2023-04-19T21:25:49.393Z,97132.06
2023-04-19T21:28:51.455Z,97131.69
2023-04-19T21:31:53.051Z,97134.91
2023-04-19T21:34:54.666Z,97138.38
2023-04-19T21:37:56.220Z,97141.69
2023-04-19T21:40:57.726Z,97145.69
2023-04-19T21:43:59.255Z,97147.22
2023-04-19T21:47:01.182Z,97147.00
2023-04-19T21:50:03.224Z,97139.19
2023-04-19T21:53:04.782Z,97142.00
2023-04-19T21:56:06.396Z,97137.75
2023-04-19T21:59:07.986Z,97133.56
2023-04-19T22:02:09.546Z,97133.34
2023-04-19T22:05:11.603Z,97149.25
2023-04-19T22:08:13.305Z,97132.00
2023-04-19T22:11:15.514Z,97137.75
2023-04-19T22:14:19.681Z,97138.94
2023-04-19T22:17:21.423Z,97134.47
2023-04-19T22:20:24.244Z,97126.13
2023-04-19T22:23:26.969Z,97127.25
2023-04-19T22:26:31.242Z,97129.28
2023-04-19T22:29:34.274Z,97118.69
2023-04-19T22:32:35.847Z,97121.31
2023-04-19T22:35:37.400Z,97128.22
2023-04-19T22:38:38.950Z,97128.78
2023-04-19T22:41:40.456Z,97124.31
2023-04-19T22:44:41.999Z,97110.78
2023-04-19T22:47:43.578Z,97107.34
2023-04-19T22:50:45.531Z,97101.53
2023-04-19T22:53:47.075Z,97100.53
2023-04-19T22:56:48.623Z,97101.78
2023-04-19T22:59:50.145Z,97090.75
2023-04-19T23:02:51.874Z,97087.91
2023-04-19T23:05:54.254Z,97085.38
2023-04-19T23:08:56.294Z,97078.44
2023-04-19T23:11:58.635Z,97068.91
2023-04-19T23:15:00.159Z,97056.84
2023-04-19T23:18:02.298Z,97067.88
2023-04-19T23:21:04.555Z,97064.44
2023-04-19T23:24:06.310Z,97068.53
2023-04-19T23:27:07.832Z,97059.56
2023-04-19T23:30:09.563Z,97052.56
2023-04-19T23:33:11.292Z,97046.25
2023-04-19T23:36:12.802Z,97038.00
2023-04-19T23:39:16.307Z,97033.06
2023-04-19T23:42:18.020Z,97041.28
2023-04-19T23:45:19.656Z,97034.34
2023-04-19T23:48:21.120Z,97022.47
2023-04-19T23:51:22.739Z,97028.47
2023-04-19T23:54:26.228Z,97021.50
2023-04-19T23:57:27.789Z,97021.31
